sensor_id;sensor_type;location;lat;lon;timestamp;pressure;altitude;pressure_sealevel;temperature;humidity
56070;BME280;41944;52.078;-0.058;2022-08-25T00:01:51;101432.88;;;21.47;85.73
56070;BME280;41944;52.078;-0.058;2022-08-25T00:04:19;101434.31;;;21.39;86.07
56070;BME280;41944;52.078;-0.058;2022-08-25T00:06:47;101431.82;;;21.38;86.05
56070;BME280;41944;52.078;-0.058;2022-08-25T00:09:18;101434.53;;;21.32;85.98
56070;BME280;41944;52.078;-0.058;2022-08-25T00:11:46;101433.23;;;21.26;86.24
56070;BME280;41944;52.078;-0.058;2022-08-25T00:14:17;101430.19;;;21.23;86.38
56070;BME280;41944;52.078;-0.058;2022-08-25T00:16:44;101429.94;;;21.17;86.46
56070;BME280;41944;52.078;-0.058;2022-08-25T00:19:15;101431.12;;;21.08;86.92
56070;BME280;41944;52.078;-0.058;2022-08-25T00:21:44;101434.74;;;21.03;87.05
56070;BME280;41944;52.078;-0.058;2022-08-25T00:24:13;101432.65;;;20.95;87.65
56070;BME280;41944;52.078;-0.058;2022-08-25T00:26:44;101435.65;;;20.87;87.86
56070;BME280;41944;52.078;-0.058;2022-08-25T00:29:11;101429.69;;;20.79;88.13
56070;BME280;41944;52.078;-0.058;2022-08-25T00:31:39;101436.60;;;20.71;88.76
56070;BME280;41944;52.078;-0.058;2022-08-25T00:34:08;101443.80;;;20.66;89.08
56070;BME280;41944;52.078;-0.058;2022-08-25T00:36:36;101440.05;;;20.72;88.83
56070;BME280;41944;52.078;-0.058;2022-08-25T00:39:04;101436.63;;;20.65;89.29
56070;BME280;41944;52.078;-0.058;2022-08-25T00:41:31;101432.94;;;20.57;90.03
56070;BME280;41944;52.078;-0.058;2022-08-25T00:44:00;101431.03;;;20.55;90.54
56070;BME280;41944;52.078;-0.058;2022-08-25T00:46:30;101428.19;;;20.54;90.68
56070;BME280;41944;52.078;-0.058;2022-08-25T00:48:59;101430.71;;;20.47;91.01
56070;BME280;41944;52.078;-0.058;2022-08-25T00:51:34;101432.31;;;20.43;90.82
56070;BME280;41944;52.078;-0.058;2022-08-25T00:54:04;101427.98;;;20.41;90.77
56070;BME280;41944;52.078;-0.058;2022-08-25T00:56:33;101430.48;;;20.37;90.79
56070;BME280;41944;52.078;-0.058;2022-08-25T00:59:02;101433.06;;;20.36;91.19
56070;BME280;41944;52.078;-0.058;2022-08-25T01:01:30;101429.97;;;20.40;91.36
56070;BME280;41944;52.078;-0.058;2022-08-25T01:03:57;101422.30;;;20.31;91.98
56070;BME280;41944;52.078;-0.058;2022-08-25T01:06:25;101425.06;;;20.23;92.59
56070;BME280;41944;52.078;-0.058;2022-08-25T01:08:53;101427.76;;;20.46;91.71
56070;BME280;41944;52.078;-0.058;2022-08-25T01:11:20;101426.14;;;20.70;89.05
56070;BME280;41944;52.078;-0.058;2022-08-25T01:13:51;101421.69;;;20.58;89.00
56070;BME280;41944;52.078;-0.058;2022-08-25T01:16:19;101417.95;;;20.48;89.81
56070;BME280;41944;52.078;-0.058;2022-08-25T01:18:48;101423.14;;;20.56;89.51
56070;BME280;41944;52.078;-0.058;2022-08-25T01:21:18;101426.26;;;20.57;89.23
56070;BME280;41944;52.078;-0.058;2022-08-25T01:23:46;101429.46;;;20.70;88.30
56070;BME280;41944;52.078;-0.058;2022-08-25T01:26:16;101429.94;;;20.73;87.32
56070;BME280;41944;52.078;-0.058;2022-08-25T01:28:46;101421.78;;;20.68;87.36
56070;BME280;41944;52.078;-0.058;2022-08-25T01:31:14;101417.55;;;20.68;86.50
56070;BME280;41944;52.078;-0.058;2022-08-25T01:33:40;101418.89;;;20.88;85.15
56070;BME280;41944;52.078;-0.058;2022-08-25T01:36:07;101414.83;;;20.68;85.09
56070;BME280;41944;52.078;-0.058;2022-08-25T01:38:34;101410.75;;;20.53;85.70
56070;BME280;41944;52.078;-0.058;2022-08-25T01:41:01;101403.67;;;20.51;86.13
56070;BME280;41944;52.078;-0.058;2022-08-25T01:43:36;101402.10;;;20.44;87.34
56070;BME280;41944;52.078;-0.058;2022-08-25T01:46:04;101406.10;;;20.31;87.88
56070;BME280;41944;52.078;-0.058;2022-08-25T01:48:31;101398.35;;;20.18;89.26
56070;BME280;41944;52.078;-0.058;2022-08-25T01:50:58;101396.95;;;20.11;89.84
56070;BME280;41944;52.078;-0.058;2022-08-25T01:53:27;101399.17;;;20.08;90.21
56070;BME280;41944;52.078;-0.058;2022-08-25T01:55:55;101398.18;;;20.03;90.63
56070;BME280;41944;52.078;-0.058;2022-08-25T01:58:26;101397.96;;;20.00;90.76
56070;BME280;41944;52.078;-0.058;2022-08-25T02:00:58;101398.27;;;20.05;91.13
56070;BME280;41944;52.078;-0.058;2022-08-25T02:03:25;101389.15;;;20.01;91.70
56070;BME280;41944;52.078;-0.058;2022-08-25T02:05:54;101382.74;;;20.04;92.08
56070;BME280;41944;52.078;-0.058;2022-08-25T02:08:22;101387.95;;;20.07;92.35
56070;BME280;41944;52.078;-0.058;2022-08-25T02:10:50;101388.81;;;20.05;92.96
56070;BME280;41944;52.078;-0.058;2022-08-25T02:13:18;101389.14;;;20.04;92.88
56070;BME280;41944;52.078;-0.058;2022-08-25T02:15:48;101389.58;;;20.01;93.17
56070;BME280;41944;52.078;-0.058;2022-08-25T02:18:17;101387.93;;;19.99;93.21
56070;BME280;41944;52.078;-0.058;2022-08-25T02:20:44;101383.89;;;20.21;92.32
56070;BME280;41944;52.078;-0.058;2022-08-25T02:23:13;101378.53;;;20.10;92.92
56070;BME280;41944;52.078;-0.058;2022-08-25T02:25:42;101376.82;;;20.04;93.72
56070;BME280;41944;52.078;-0.058;2022-08-25T02:28:09;101374.58;;;19.97;94.28
56070;BME280;41944;52.078;-0.058;2022-08-25T02:30:37;101368.33;;;20.00;94.17
56070;BME280;41944;52.078;-0.058;2022-08-25T02:33:05;101358.80;;;20.08;93.85
56070;BME280;41944;52.078;-0.058;2022-08-25T02:35:32;101353.29;;;20.18;93.22
56070;BME280;41944;52.078;-0.058;2022-08-25T02:37:59;101356.21;;;20.04;93.67
56070;BME280;41944;52.078;-0.058;2022-08-25T02:40:26;101361.68;;;19.90;94.45
56070;BME280;41944;52.078;-0.058;2022-08-25T02:42:53;101357.25;;;19.88;94.76
56070;BME280;41944;52.078;-0.058;2022-08-25T02:45:20;101352.31;;;19.86;94.84
56070;BME280;41944;52.078;-0.058;2022-08-25T02:47:47;101346.85;;;19.86;94.70
56070;BME280;41944;52.078;-0.058;2022-08-25T02:50:14;101344.96;;;19.92;94.23
56070;BME280;41944;52.078;-0.058;2022-08-25T02:52:41;101344.48;;;19.82;94.84
56070;BME280;41944;52.078;-0.058;2022-08-25T02:55:12;101348.59;;;19.80;94.88
56070;BME280;41944;52.078;-0.058;2022-08-25T02:57:39;101352.28;;;19.80;94.92
56070;BME280;41944;52.078;-0.058;2022-08-25T03:00:08;101354.77;;;19.89;94.28
56070;BME280;41944;52.078;-0.058;2022-08-25T03:02:35;101361.44;;;19.85;94.15
56070;BME280;41944;52.078;-0.058;2022-08-25T03:05:04;101368.40;;;19.80;94.35
56070;BME280;41944;52.078;-0.058;2022-08-25T03:07:31;101371.64;;;19.78;94.24
56070;BME280;41944;52.078;-0.058;2022-08-25T03:09:57;101374.02;;;19.83;93.44
56070;BME280;41944;52.078;-0.058;2022-08-25T03:12:24;101377.87;;;19.95;92.36
56070;BME280;41944;52.078;-0.058;2022-08-25T03:14:51;101372.06;;;19.90;92.95
56070;BME280;41944;52.078;-0.058;2022-08-25T03:17:18;101362.21;;;19.92;93.73
56070;BME280;41944;52.078;-0.058;2022-08-25T03:19:45;101357.67;;;19.91;95.09
56070;BME280;41944;52.078;-0.058;2022-08-25T03:22:12;101360.39;;;20.02;95.25
56070;BME280;41944;52.078;-0.058;2022-08-25T03:24:38;101359.85;;;20.00;95.73
56070;BME280;41944;52.078;-0.058;2022-08-25T03:27:05;101362.25;;;19.83;96.27
56070;BME280;41944;52.078;-0.058;2022-08-25T03:29:32;101365.34;;;19.89;96.91
56070;BME280;41944;52.078;-0.058;2022-08-25T03:32:00;101369.15;;;19.90;96.20
56070;BME280;41944;52.078;-0.058;2022-08-25T03:34:28;101366.72;;;19.87;96.95
56070;BME280;41944;52.078;-0.058;2022-08-25T03:36:56;101352.49;;;19.85;96.86
56070;BME280;41944;52.078;-0.058;2022-08-25T03:39:25;101352.04;;;19.91;97.38
56070;BME280;41944;52.078;-0.058;2022-08-25T03:41:52;101351.99;;;19.91;98.52
56070;BME280;41944;52.078;-0.058;2022-08-25T03:44:20;101350.27;;;19.91;97.70
56070;BME280;41944;52.078;-0.058;2022-08-25T03:46:50;101347.76;;;19.84;98.21
56070;BME280;41944;52.078;-0.058;2022-08-25T03:49:20;101342.14;;;19.88;98.55
56070;BME280;41944;52.078;-0.058;2022-08-25T03:51:50;101341.57;;;19.88;98.72
56070;BME280;41944;52.078;-0.058;2022-08-25T03:54:19;101342.89;;;19.84;98.92
56070;BME280;41944;52.078;-0.058;2022-08-25T03:56:47;101347.67;;;19.91;98.04
56070;BME280;41944;52.078;-0.058;2022-08-25T03:59:15;101347.34;;;19.84;98.91
56070;BME280;41944;52.078;-0.058;2022-08-25T04:01:44;101351.01;;;19.86;99.28
56070;BME280;41944;52.078;-0.058;2022-08-25T04:04:13;101358.58;;;20.13;98.01
56070;BME280;41944;52.078;-0.058;2022-08-25T04:06:42;101363.11;;;20.11;97.83
56070;BME280;41944;52.078;-0.058;2022-08-25T04:09:10;101358.25;;;20.24;96.67
56070;BME280;41944;52.078;-0.058;2022-08-25T04:11:38;101355.05;;;20.19;96.26
56070;BME280;41944;52.078;-0.058;2022-08-25T04:14:05;101348.62;;;20.16;96.80
56070;BME280;41944;52.078;-0.058;2022-08-25T04:16:34;101344.69;;;20.02;98.79
56070;BME280;41944;52.078;-0.058;2022-08-25T04:19:04;101346.69;;;19.93;100.00
56070;BME280;41944;52.078;-0.058;2022-08-25T04:21:32;101349.21;;;19.84;100.00
56070;BME280;41944;52.078;-0.058;2022-08-25T04:23:58;101348.36;;;19.83;100.00
56070;BME280;41944;52.078;-0.058;2022-08-25T04:26:28;101343.54;;;19.86;100.00
56070;BME280;41944;52.078;-0.058;2022-08-25T04:28:57;101343.53;;;19.88;100.00
56070;BME280;41944;52.078;-0.058;2022-08-25T04:31:25;101350.25;;;19.91;100.00
56070;BME280;41944;52.078;-0.058;2022-08-25T04:33:53;101351.00;;;20.05;100.00
56070;BME280;41944;52.078;-0.058;2022-08-25T04:36:20;101344.27;;;19.86;100.00
56070;BME280;41944;52.078;-0.058;2022-08-25T04:38:48;101332.87;;;19.84;100.00
56070;BME280;41944;52.078;-0.058;2022-08-25T04:41:18;101325.69;;;19.87;100.00
56070;BME280;41944;52.078;-0.058;2022-08-25T04:43:45;101325.89;;;19.82;100.00
56070;BME280;41944;52.078;-0.058;2022-08-25T04:46:14;101337.59;;;19.82;100.00
56070;BME280;41944;52.078;-0.058;2022-08-25T04:48:43;101349.72;;;19.87;100.00
56070;BME280;41944;52.078;-0.058;2022-08-25T04:51:13;101350.19;;;19.98;100.00
56070;BME280;41944;52.078;-0.058;2022-08-25T04:53:41;101348.76;;;19.91;100.00
56070;BME280;41944;52.078;-0.058;2022-08-25T04:56:10;101344.76;;;19.79;100.00
56070;BME280;41944;52.078;-0.058;2022-08-25T04:58:38;101346.24;;;19.80;100.00
56070;BME280;41944;52.078;-0.058;2022-08-25T05:01:08;101350.77;;;19.73;100.00
56070;BME280;41944;52.078;-0.058;2022-08-25T05:03:36;101351.70;;;19.70;100.00
56070;BME280;41944;52.078;-0.058;2022-08-25T05:06:03;101348.87;;;19.72;100.00
56070;BME280;41944;52.078;-0.058;2022-08-25T05:08:31;101346.01;;;19.68;100.00
56070;BME280;41944;52.078;-0.058;2022-08-25T05:11:03;101345.91;;;19.85;100.00
56070;BME280;41944;52.078;-0.058;2022-08-25T05:13:30;101350.63;;;19.79;100.00
56070;BME280;41944;52.078;-0.058;2022-08-25T05:15:59;101358.51;;;19.95;100.00
56070;BME280;41944;52.078;-0.058;2022-08-25T05:18:29;101375.16;;;19.77;100.00
56070;BME280;41944;52.078;-0.058;2022-08-25T05:21:01;101383.46;;;19.79;100.00
56070;BME280;41944;52.078;-0.058;2022-08-25T05:23:28;101387.78;;;19.83;100.00
56070;BME280;41944;52.078;-0.058;2022-08-25T05:25:55;101394.05;;;19.82;100.00
56070;BME280;41944;52.078;-0.058;2022-08-25T05:28:26;101393.13;;;19.84;100.00
56070;BME280;41944;52.078;-0.058;2022-08-25T05:30:57;101402.11;;;19.81;100.00
56070;BME280;41944;52.078;-0.058;2022-08-25T05:33:25;101410.28;;;19.78;100.00
56070;BME280;41944;52.078;-0.058;2022-08-25T05:35:53;101420.39;;;19.72;100.00
56070;BME280;41944;52.078;-0.058;2022-08-25T05:38:20;101427.31;;;19.76;100.00
56070;BME280;41944;52.078;-0.058;2022-08-25T05:40:49;101426.16;;;19.72;100.00
56070;BME280;41944;52.078;-0.058;2022-08-25T05:43:17;101421.64;;;19.71;100.00
56070;BME280;41944;52.078;-0.058;2022-08-25T05:45:44;101416.35;;;19.71;100.00
56070;BME280;41944;52.078;-0.058;2022-08-25T05:48:12;101410.93;;;19.75;100.00
56070;BME280;41944;52.078;-0.058;2022-08-25T05:50:38;101404.48;;;19.72;100.00
56070;BME280;41944;52.078;-0.058;2022-08-25T05:53:05;101402.82;;;19.74;100.00
56070;BME280;41944;52.078;-0.058;2022-08-25T05:55:32;101397.72;;;19.78;100.00
56070;BME280;41944;52.078;-0.058;2022-08-25T05:57:59;101393.87;;;19.70;100.00
56070;BME280;41944;52.078;-0.058;2022-08-25T06:00:26;101383.87;;;19.95;100.00
56070;BME280;41944;52.078;-0.058;2022-08-25T06:02:53;101400.10;;;19.76;100.00
56070;BME280;41944;52.078;-0.058;2022-08-25T06:05:21;101409.22;;;19.82;100.00
56070;BME280;41944;52.078;-0.058;2022-08-25T06:07:50;101419.35;;;19.73;100.00
56070;BME280;41944;52.078;-0.058;2022-08-25T06:10:18;101421.84;;;19.75;100.00
56070;BME280;41944;52.078;-0.058;2022-08-25T06:12:45;101423.97;;;19.75;100.00
56070;BME280;41944;52.078;-0.058;2022-08-25T06:15:14;101425.83;;;19.89;100.00
56070;BME280;41944;52.078;-0.058;2022-08-25T06:17:42;101419.05;;;20.00;100.00
56070;BME280;41944;52.078;-0.058;2022-08-25T06:20:12;101423.41;;;19.90;100.00
56070;BME280;41944;52.078;-0.058;2022-08-25T06:22:40;101428.34;;;19.78;100.00
56070;BME280;41944;52.078;-0.058;2022-08-25T06:25:08;101432.60;;;19.87;100.00
56070;BME280;41944;52.078;-0.058;2022-08-25T06:27:36;101434.47;;;19.88;100.00
56070;BME280;41944;52.078;-0.058;2022-08-25T06:30:06;101437.93;;;19.94;100.00
56070;BME280;41944;52.078;-0.058;2022-08-25T06:32:34;101435.23;;;20.03;100.00
56070;BME280;41944;52.078;-0.058;2022-08-25T06:35:02;101420.88;;;20.18;100.00
56070;BME280;41944;52.078;-0.058;2022-08-25T06:37:29;101426.40;;;19.98;100.00
56070;BME280;41944;52.078;-0.058;2022-08-25T06:39:57;101423.29;;;19.94;100.00
56070;BME280;41944;52.078;-0.058;2022-08-25T06:42:23;101425.40;;;19.95;100.00
56070;BME280;41944;52.078;-0.058;2022-08-25T06:44:50;101440.26;;;20.04;100.00
56070;BME280;41944;52.078;-0.058;2022-08-25T06:47:18;101444.22;;;20.09;100.00
56070;BME280;41944;52.078;-0.058;2022-08-25T06:49:45;101432.90;;;19.84;100.00
56070;BME280;41944;52.078;-0.058;2022-08-25T06:52:13;101409.07;;;20.13;100.00
56070;BME280;41944;52.078;-0.058;2022-08-25T06:54:41;101403.38;;;20.24;99.17
56070;BME280;41944;52.078;-0.058;2022-08-25T06:57:08;101400.50;;;20.16;100.00
56070;BME280;41944;52.078;-0.058;2022-08-25T06:59:36;101398.95;;;20.15;100.00
56070;BME280;41944;52.078;-0.058;2022-08-25T07:02:04;101398.50;;;20.13;98.77
56070;BME280;41944;52.078;-0.058;2022-08-25T07:04:32;101411.51;;;20.07;98.73
56070;BME280;41944;52.078;-0.058;2022-08-25T07:06:59;101424.15;;;20.09;98.33
56070;BME280;41944;52.078;-0.058;2022-08-25T07:09:27;101422.17;;;20.15;97.73
56070;BME280;41944;52.078;-0.058;2022-08-25T07:11:54;101419.16;;;19.99;96.28
56070;BME280;41944;52.078;-0.058;2022-08-25T07:14:20;101402.80;;;19.95;97.16
56070;BME280;41944;52.078;-0.058;2022-08-25T07:16:47;101387.23;;;19.66;98.82
56070;BME280;41944;52.078;-0.058;2022-08-25T07:19:14;101368.46;;;19.50;100.00
56070;BME280;41944;52.078;-0.058;2022-08-25T07:21:42;101364.59;;;19.58;99.71
56070;BME280;41944;52.078;-0.058;2022-08-25T07:24:10;101377.76;;;19.72;98.69
56070;BME280;41944;52.078;-0.058;2022-08-25T07:26:39;101395.39;;;19.63;99.85
56070;BME280;41944;52.078;-0.058;2022-08-25T07:29:09;101404.98;;;19.65;99.33
56070;BME280;41944;52.078;-0.058;2022-08-25T07:31:37;101410.88;;;19.67;100.00
56070;BME280;41944;52.078;-0.058;2022-08-25T07:34:05;101414.72;;;19.70;99.87
56070;BME280;41944;52.078;-0.058;2022-08-25T07:36:32;101420.67;;;19.73;100.00
56070;BME280;41944;52.078;-0.058;2022-08-25T07:38:59;101432.43;;;19.65;100.00
56070;BME280;41944;52.078;-0.058;2022-08-25T07:41:27;101446.12;;;19.88;98.47
56070;BME280;41944;52.078;-0.058;2022-08-25T07:43:53;101455.72;;;19.75;98.27
56070;BME280;41944;52.078;-0.058;2022-08-25T07:46:20;101458.03;;;19.87;97.22
56070;BME280;41944;52.078;-0.058;2022-08-25T07:48:48;101455.32;;;19.84;97.73
56070;BME280;41944;52.078;-0.058;2022-08-25T07:51:15;101456.26;;;19.81;98.15
56070;BME280;41944;52.078;-0.058;2022-08-25T07:53:42;101451.49;;;19.86;98.46
56070;BME280;41944;52.078;-0.058;2022-08-25T07:56:10;101451.69;;;19.92;97.94
56070;BME280;41944;52.078;-0.058;2022-08-25T07:58:37;101454.04;;;19.84;97.88
56070;BME280;41944;52.078;-0.058;2022-08-25T08:01:06;101466.03;;;19.85;97.79
56070;BME280;41944;52.078;-0.058;2022-08-25T08:03:33;101479.52;;;19.83;98.15
56070;BME280;41944;52.078;-0.058;2022-08-25T08:06:02;101480.68;;;19.98;97.25
56070;BME280;41944;52.078;-0.058;2022-08-25T08:08:32;101472.42;;;19.86;97.36
56070;BME280;41944;52.078;-0.058;2022-08-25T08:10:59;101468.12;;;20.00;97.04
56070;BME280;41944;52.078;-0.058;2022-08-25T08:13:26;101476.76;;;19.86;97.44
56070;BME280;41944;52.078;-0.058;2022-08-25T08:15:53;101480.62;;;19.71;99.36
56070;BME280;41944;52.078;-0.058;2022-08-25T08:18:20;101479.58;;;19.74;99.41
56070;BME280;41944;52.078;-0.058;2022-08-25T08:20:48;101480.67;;;19.79;98.82
56070;BME280;41944;52.078;-0.058;2022-08-25T08:23:16;101488.72;;;19.88;98.60
56070;BME280;41944;52.078;-0.058;2022-08-25T08:25:43;101495.52;;;19.80;98.18
56070;BME280;41944;52.078;-0.058;2022-08-25T08:28:10;101479.81;;;19.70;99.63
56070;BME280;41944;52.078;-0.058;2022-08-25T08:30:37;101460.80;;;19.75;98.73
56070;BME280;41944;52.078;-0.058;2022-08-25T08:33:04;101451.33;;;19.84;98.40
56070;BME280;41944;52.078;-0.058;2022-08-25T08:35:31;101458.71;;;20.05;95.43
56070;BME280;41944;52.078;-0.058;2022-08-25T08:37:58;101452.84;;;20.04;96.92
56070;BME280;41944;52.078;-0.058;2022-08-25T08:40:24;101439.00;;;20.18;94.39
56070;BME280;41944;52.078;-0.058;2022-08-25T08:43:01;101431.31;;;20.22;93.81
56070;BME280;41944;52.078;-0.058;2022-08-25T08:45:35;101442.72;;;20.02;95.57
56070;BME280;41944;52.078;-0.058;2022-08-25T08:48:15;101443.15;;;19.94;96.28
56070;BME280;41944;52.078;-0.058;2022-08-25T08:50:54;101445.62;;;19.77;96.94
56070;BME280;41944;52.078;-0.058;2022-08-25T08:53:30;101447.32;;;19.94;96.43
56070;BME280;41944;52.078;-0.058;2022-08-25T08:56:01;101446.87;;;19.90;97.75
56070;BME280;41944;52.078;-0.058;2022-08-25T08:58:39;101435.40;;;19.97;95.00
56070;BME280;41944;52.078;-0.058;2022-08-25T09:01:09;101419.37;;;20.08;95.94
56070;BME280;41944;52.078;-0.058;2022-08-25T09:03:41;101418.56;;;19.90;96.23
56070;BME280;41944;52.078;-0.058;2022-08-25T09:06:11;101434.43;;;19.97;96.57
56070;BME280;41944;52.078;-0.058;2022-08-25T09:08:40;101453.32;;;20.07;96.89
56070;BME280;41944;52.078;-0.058;2022-08-25T09:11:13;101461.70;;;20.13;95.58
56070;BME280;41944;52.078;-0.058;2022-08-25T09:13:57;101466.33;;;20.10;96.48
56070;BME280;41944;52.078;-0.058;2022-08-25T09:16:33;101468.93;;;19.92;95.80
56070;BME280;41944;52.078;-0.058;2022-08-25T09:19:26;101478.35;;;20.07;96.90
56070;BME280;41944;52.078;-0.058;2022-08-25T09:22:04;101479.89;;;20.08;94.95
56070;BME280;41944;52.078;-0.058;2022-08-25T09:24:44;101477.80;;;20.11;96.26
56070;BME280;41944;52.078;-0.058;2022-08-25T09:27:24;101468.77;;;20.09;94.53
56070;BME280;41944;52.078;-0.058;2022-08-25T09:29:59;101457.90;;;20.17;95.47
56070;BME280;41944;52.078;-0.058;2022-08-25T09:32:33;101439.11;;;20.26;95.92
56070;BME280;41944;52.078;-0.058;2022-08-25T09:35:02;101445.47;;;20.19;96.36
56070;BME280;41944;52.078;-0.058;2022-08-25T09:37:31;101461.52;;;20.19;97.43
56070;BME280;41944;52.078;-0.058;2022-08-25T09:39:57;101473.20;;;20.19;97.67
56070;BME280;41944;52.078;-0.058;2022-08-25T09:42:45;101478.52;;;20.06;98.04
56070;BME280;41944;52.078;-0.058;2022-08-25T09:45:13;101475.12;;;20.06;97.65
56070;BME280;41944;52.078;-0.058;2022-08-25T09:47:42;101475.13;;;20.04;99.06
56070;BME280;41944;52.078;-0.058;2022-08-25T09:50:15;101463.65;;;20.03;96.33
56070;BME280;41944;52.078;-0.058;2022-08-25T09:52:43;101457.38;;;20.07;94.45
56070;BME280;41944;52.078;-0.058;2022-08-25T09:55:27;101456.82;;;20.24;95.91
56070;BME280;41944;52.078;-0.058;2022-08-25T09:57:56;101449.51;;;20.37;95.55
56070;BME280;41944;52.078;-0.058;2022-08-25T10:00:27;101444.63;;;20.33;95.27
56070;BME280;41944;52.078;-0.058;2022-08-25T10:03:07;101450.01;;;20.34;96.09
56070;BME280;41944;52.078;-0.058;2022-08-25T10:05:46;101475.57;;;20.31;97.58
56070;BME280;41944;52.078;-0.058;2022-08-25T10:08:26;101473.67;;;20.34;97.42
56070;BME280;41944;52.078;-0.058;2022-08-25T10:10:57;101475.65;;;20.37;97.26
56070;BME280;41944;52.078;-0.058;2022-08-25T10:13:35;101479.77;;;20.26;98.41
56070;BME280;41944;52.078;-0.058;2022-08-25T10:16:06;101481.22;;;20.43;96.86
56070;BME280;41944;52.078;-0.058;2022-08-25T10:18:33;101489.44;;;20.62;96.21
56070;BME280;41944;52.078;-0.058;2022-08-25T10:21:05;101489.82;;;20.63;96.98
56070;BME280;41944;52.078;-0.058;2022-08-25T10:23:35;101475.00;;;20.65;93.04
56070;BME280;41944;52.078;-0.058;2022-08-25T10:26:08;101453.65;;;20.68;93.66
56070;BME280;41944;52.078;-0.058;2022-08-25T10:28:41;101443.20;;;20.62;94.49
56070;BME280;41944;52.078;-0.058;2022-08-25T10:31:18;101442.40;;;20.53;94.16
56070;BME280;41944;52.078;-0.058;2022-08-25T10:33:58;101442.79;;;20.36;95.48
56070;BME280;41944;52.078;-0.058;2022-08-25T10:36:37;101441.35;;;20.47;95.85
56070;BME280;41944;52.078;-0.058;2022-08-25T10:39:15;101434.37;;;20.41;96.92
56070;BME280;41944;52.078;-0.058;2022-08-25T10:41:50;101421.10;;;20.52;96.42
56070;BME280;41944;52.078;-0.058;2022-08-25T10:44:26;101414.93;;;20.27;96.91
56070;BME280;41944;52.078;-0.058;2022-08-25T10:47:16;101420.58;;;20.44;97.21
56070;BME280;41944;52.078;-0.058;2022-08-25T10:49:53;101431.33;;;20.48;96.15
56070;BME280;41944;52.078;-0.058;2022-08-25T10:52:30;101427.71;;;20.58;97.15
56070;BME280;41944;52.078;-0.058;2022-08-25T10:55:12;101419.67;;;20.73;96.50
56070;BME280;41944;52.078;-0.058;2022-08-25T10:57:48;101406.50;;;20.68;97.87
56070;BME280;41944;52.078;-0.058;2022-08-25T11:00:22;101406.06;;;20.73;95.97
56070;BME280;41944;52.078;-0.058;2022-08-25T11:03:01;101411.31;;;20.68;96.27
56070;BME280;41944;52.078;-0.058;2022-08-25T11:05:36;101422.47;;;20.80;96.47
56070;BME280;41944;52.078;-0.058;2022-08-25T11:08:09;101430.47;;;20.81;94.72
56070;BME280;41944;52.078;-0.058;2022-08-25T11:10:43;101430.51;;;20.78;93.82
56070;BME280;41944;52.078;-0.058;2022-08-25T11:13:18;101435.18;;;20.81;94.81
56070;BME280;41944;52.078;-0.058;2022-08-25T11:15:52;101444.47;;;20.81;95.04
56070;BME280;41944;52.078;-0.058;2022-08-25T11:18:20;101441.10;;;20.77;93.79
56070;BME280;41944;52.078;-0.058;2022-08-25T11:20:55;101436.48;;;20.75;94.76
56070;BME280;41944;52.078;-0.058;2022-08-25T11:23:32;101427.82;;;20.86;94.60
56070;BME280;41944;52.078;-0.058;2022-08-25T11:26:06;101423.14;;;20.57;94.00
56070;BME280;41944;52.078;-0.058;2022-08-25T11:28:42;101419.28;;;20.58;95.93
56070;BME280;41944;52.078;-0.058;2022-08-25T11:31:16;101407.90;;;20.70;96.33
56070;BME280;41944;52.078;-0.058;2022-08-25T11:33:44;101393.14;;;20.71;96.95
56070;BME280;41944;52.078;-0.058;2022-08-25T11:36:22;101376.97;;;20.66;97.09
56070;BME280;41944;52.078;-0.058;2022-08-25T11:39:03;101358.74;;;20.73;97.18
56070;BME280;41944;52.078;-0.058;2022-08-25T11:41:40;101333.51;;;20.66;97.87
56070;BME280;41944;52.078;-0.058;2022-08-25T11:44:26;101311.59;;;20.56;98.33
56070;BME280;41944;52.078;-0.058;2022-08-25T11:47:17;101299.90;;;20.55;99.04
56070;BME280;41944;52.078;-0.058;2022-08-25T11:49:52;101288.39;;;20.59;97.84
56070;BME280;41944;52.078;-0.058;2022-08-25T11:52:57;101279.41;;;20.52;97.87
56070;BME280;41944;52.078;-0.058;2022-08-25T11:55:42;101294.08;;;20.55;99.60
56070;BME280;41944;52.078;-0.058;2022-08-25T11:58:24;101324.43;;;20.64;99.75
56070;BME280;41944;52.078;-0.058;2022-08-25T12:00:54;101352.81;;;20.80;98.52
56070;BME280;41944;52.078;-0.058;2022-08-25T12:04:10;101384.63;;;20.76;98.66
56070;BME280;41944;52.078;-0.058;2022-08-25T12:07:16;101416.32;;;21.05;96.21
56070;BME280;41944;52.078;-0.058;2022-08-25T12:10:10;101425.40;;;21.42;94.58
56070;BME280;41944;52.078;-0.058;2022-08-25T12:12:56;101433.14;;;21.49;92.53
56070;BME280;41944;52.078;-0.058;2022-08-25T12:15:25;101446.12;;;21.40;93.10
56070;BME280;41944;52.078;-0.058;2022-08-25T12:18:10;101461.26;;;21.25;95.25
56070;BME280;41944;52.078;-0.058;2022-08-25T12:21:13;101472.59;;;21.30;95.39
56070;BME280;41944;52.078;-0.058;2022-08-25T12:23:43;101483.71;;;21.19;96.02
56070;BME280;41944;52.078;-0.058;2022-08-25T12:26:17;101493.41;;;21.27;95.76
56070;BME280;41944;52.078;-0.058;2022-08-25T12:28:55;101485.23;;;21.46;93.08
56070;BME280;41944;52.078;-0.058;2022-08-25T12:31:41;101478.85;;;21.34;93.57
56070;BME280;41944;52.078;-0.058;2022-08-25T12:34:25;101479.51;;;21.34;94.83
56070;BME280;41944;52.078;-0.058;2022-08-25T12:36:59;101479.99;;;21.26;94.52
56070;BME280;41944;52.078;-0.058;2022-08-25T12:39:30;101481.31;;;21.21;92.70
56070;BME280;41944;52.078;-0.058;2022-08-25T12:42:02;101487.25;;;21.29;94.22
56070;BME280;41944;52.078;-0.058;2022-08-25T12:44:47;101484.67;;;21.30;94.55
56070;BME280;41944;52.078;-0.058;2022-08-25T12:47:33;101485.10;;;21.36;92.89
56070;BME280;41944;52.078;-0.058;2022-08-25T12:51:07;101490.25;;;21.54;92.68
56070;BME280;41944;52.078;-0.058;2022-08-25T12:53:39;101496.03;;;21.43;95.26
56070;BME280;41944;52.078;-0.058;2022-08-25T12:56:09;101496.69;;;21.57;93.92
56070;BME280;41944;52.078;-0.058;2022-08-25T12:58:48;101501.48;;;21.63;89.61